Time;durP1;ratioP1;P1;durP2;ratioP2;P2;SDS_P1;SDS_P2;PMS_P1;PMS_P2;Temp;Humidity;BMP_temperature;BMP_pressure;BME280_temperature;BME280_humidity;BME280_pressure;Samples;Min_cycle;Max_cycle;Signal;HPM_P1;HPM_P2
2023/03/23 04:02:13;;;;;;;0.77;0.50;;;18.80;52.10;;;;;;5224446;22;45219;-58
2023/03/23 04:04:39;;;;;;;0.60;0.40;;;18.80;52.10;;;;;;5001993;28;45507;-58
2023/03/23 04:07:05;;;;;;;0.35;0.35;;;18.80;52.10;;;;;;5012079;28;45216;-58
2023/03/23 04:09:31;;;;;;;0.30;0.30;;;18.80;52.10;;;;;;5019703;28;45120;-58
2023/03/23 04:11:56;;;;;;;0.60;0.47;;;18.80;52.00;;;;;;4995374;28;45014;-58
2023/03/23 04:14:22;;;;;;;0.40;0.40;;;18.80;52.10;;;;;;5020470;28;45027;-57
2023/03/23 04:16:47;;;;;;;0.73;0.50;;;18.80;52.10;;;;;;4977016;28;45400;-59
2023/03/23 04:19:13;;;;;;;0.40;0.40;;;18.80;52.10;;;;;;5001728;28;46042;-57
2023/03/23 04:21:39;;;;;;;0.40;0.40;;;18.80;52.10;;;;;;5012564;28;45631;-60
2023/03/23 04:24:04;;;;;;;0.30;0.30;;;18.80;52.10;;;;;;4991563;28;45262;-57
2023/03/23 04:26:30;;;;;;;0.40;0.40;;;18.80;52.00;;;;;;5011965;28;45039;-57
2023/03/23 04:28:56;;;;;;;0.50;0.50;;;18.80;52.00;;;;;;5018396;28;46374;-58
2023/03/23 04:31:24;;;;;;;0.40;0.40;;;18.80;52.00;;;;;;4994293;28;45197;-57
2023/03/23 04:33:52;;;;;;;0.35;0.35;;;18.80;52.00;;;;;;4999547;28;45246;-59
2023/03/23 04:36:17;;;;;;;0.40;0.40;;;18.80;52.10;;;;;;5013081;28;45491;-58
2023/03/23 04:38:43;;;;;;;0.50;0.50;;;18.80;52.10;;;;;;4989572;28;47052;-59
2023/03/23 04:41:08;;;;;;;0.40;0.40;;;18.80;52.10;;;;;;4996996;28;45367;-59
2023/03/23 04:43:41;;;;;;;0.40;0.40;;;18.80;52.10;;;;;;5006242;28;46353;-58
2023/03/23 04:46:08;;;;;;;0.57;0.43;;;18.80;52.10;;;;;;4976691;28;45631;-58
2023/03/23 04:48:34;;;;;;;0.35;0.30;;;18.80;52.10;;;;;;5000313;28;46444;-58
2023/03/23 04:51:03;;;;;;;0.55;0.40;;;18.80;52.10;;;;;;4989284;28;45397;-58
2023/03/23 04:53:30;;;;;;;0.32;0.30;;;18.80;52.10;;;;;;4988857;28;46240;-58
2023/03/23 04:55:56;;;;;;;0.73;0.50;;;18.80;52.10;;;;;;4985310;28;44789;-57
2023/03/23 04:58:23;;;;;;;0.43;0.40;;;18.80;52.10;;;;;;5003637;28;45775;-56
2023/03/23 05:00:49;;;;;;;0.50;0.50;;;18.80;52.00;;;;;;4987844;28;45514;-57
2023/03/23 05:03:18;;;;;;;0.40;0.40;;;18.80;52.00;;;;;;4974501;28;46047;-54
2023/03/23 05:05:46;;;;;;;0.63;0.30;;;18.80;52.00;;;;;;4983522;28;45756;-57
2023/03/23 05:08:13;;;;;;;0.47;0.30;;;18.80;52.10;;;;;;4975760;28;45498;-58
2023/03/23 05:10:38;;;;;;;0.30;0.30;;;18.80;52.20;;;;;;4999077;28;45807;-58
2023/03/23 05:13:04;;;;;;;0.30;0.30;;;18.80;52.10;;;;;;4985009;28;46936;-58
2023/03/23 05:15:30;;;;;;;0.43;0.43;;;18.80;52.10;;;;;;5006898;28;45199;-57
2023/03/23 05:17:55;;;;;;;0.22;0.20;;;18.70;52.10;;;;;;5001782;28;45548;-59
2023/03/23 05:20:21;;;;;;;0.30;0.30;;;18.80;52.10;;;;;;4988372;28;44970;-58
2023/03/23 05:22:50;;;;;;;0.30;0.30;;;18.80;52.10;;;;;;5010323;28;45402;-60
2023/03/23 05:25:18;;;;;;;0.38;0.38;;;18.70;52.10;;;;;;4992186;28;45894;-58
2023/03/23 05:27:48;;;;;;;0.35;0.35;;;18.80;52.10;;;;;;5006985;28;45876;-59
2023/03/23 05:30:16;;;;;;;0.30;0.30;;;18.80;52.10;;;;;;4986136;28;45322;-59
2023/03/23 05:32:44;;;;;;;0.40;0.40;;;18.80;52.10;;;;;;4996116;28;45056;-59
2023/03/23 05:35:11;;;;;;;0.40;0.40;;;18.70;52.10;;;;;;4998899;28;45237;-59
2023/03/23 05:37:37;;;;;;;0.40;0.40;;;18.70;52.20;;;;;;5015697;28;45546;-58
2023/03/23 05:40:05;;;;;;;0.50;0.50;;;18.70;52.20;;;;;;4986906;28;45236;-57
2023/03/23 05:42:35;;;;;;;0.40;0.40;;;18.70;52.20;;;;;;4989262;28;44667;-58
2023/03/23 05:45:02;;;;;;;0.30;0.30;;;18.70;52.20;;;;;;4989910;28;44800;-59
2023/03/23 05:47:28;;;;;;;0.30;0.30;;;18.70;52.20;;;;;;4980068;28;45863;-57
2023/03/23 05:49:54;;;;;;;0.30;0.30;;;18.70;52.10;;;;;;4988618;28;45023;-60
2023/03/23 05:52:20;;;;;;;0.47;0.47;;;18.70;52.10;;;;;;4987619;28;44993;-58
2023/03/23 05:54:46;;;;;;;0.47;0.47;;;18.70;52.10;;;;;;5006468;28;45190;-59
2023/03/23 05:57:11;;;;;;;0.60;0.50;;;18.70;52.10;;;;;;4988756;28;45811;-59
2023/03/23 05:59:37;;;;;;;0.50;0.30;;;18.70;52.10;;;;;;5002894;28;45796;-58
2023/03/23 06:02:03;;;;;;;0.30;0.30;;;18.70;52.10;;;;;;4973403;28;45637;-57
2023/03/23 06:04:29;;;;;;;0.28;0.28;;;18.70;52.10;;;;;;5007585;28;45008;-58
2023/03/23 06:06:54;;;;;;;0.25;0.25;;;18.70;52.20;;;;;;4997066;28;45473;-58
2023/03/23 06:09:20;;;;;;;0.50;0.40;;;18.70;52.10;;;;;;4998359;28;44938;-57
2023/03/23 06:11:47;;;;;;;0.38;0.38;;;18.70;52.40;;;;;;4969241;28;45675;-58
2023/03/23 06:14:13;;;;;;;0.50;0.50;;;18.70;52.10;;;;;;4975932;28;45260;-59
2023/03/23 06:16:38;;;;;;;0.38;0.38;;;18.70;52.10;;;;;;4982995;28;45246;-57
2023/03/23 06:19:04;;;;;;;0.38;0.38;;;18.70;52.10;;;;;;4997626;28;45168;-58
2023/03/23 06:21:32;;;;;;;0.30;0.30;;;18.70;52.10;;;;;;4987905;28;45065;-58
2023/03/23 06:23:59;;;;;;;0.30;0.25;;;18.70;52.10;;;;;;4990424;28;45166;-57
2023/03/23 06:26:28;;;;;;;0.30;0.30;;;18.70;52.20;;;;;;5004373;28;46577;-58
2023/03/23 06:28:54;;;;;;;0.40;0.40;;;18.70;52.20;;;;;;4972883;28;45064;-59
2023/03/23 06:31:20;;;;;;;0.30;0.30;;;18.70;52.20;;;;;;4989220;28;45318;-59
2023/03/23 06:33:47;;;;;;;0.40;0.30;;;18.70;52.20;;;;;;4990841;28;45505;-58
2023/03/23 06:36:12;;;;;;;0.25;0.25;;;18.70;52.20;;;;;;4957337;28;46443;-58
2023/03/23 06:38:38;;;;;;;0.40;0.40;;;18.70;52.20;;;;;;5004233;28;45367;-57
2023/03/23 06:41:04;;;;;;;0.30;0.30;;;18.60;52.20;;;;;;4967809;28;45521;-57
2023/03/23 06:43:30;;;;;;;1.08;0.57;;;18.60;52.20;;;;;;5003302;28;45731;-58
2023/03/23 06:45:58;;;;;;;0.73;0.50;;;18.60;52.30;;;;;;4975889;28;46189;-57
2023/03/23 06:48:24;;;;;;;0.30;0.30;;;18.60;52.20;;;;;;4973758;28;45469;-58
2023/03/23 06:50:49;;;;;;;0.40;0.30;;;18.60;52.20;;;;;;4997842;28;45615;-59
2023/03/23 06:53:15;;;;;;;0.22;0.20;;;18.60;52.20;;;;;;5011572;28;45265;-57
2023/03/23 06:55:42;;;;;;;1.67;0.80;;;18.70;52.20;;;;;;5000890;28;45235;-59
2023/03/23 06:58:08;;;;;;;0.98;0.68;;;18.70;52.00;;;;;;5011814;28;45393;-58
2023/03/23 07:00:34;;;;;;;1.17;0.60;;;18.70;51.90;;;;;;4997413;28;45775;-58
2023/03/23 07:02:59;;;;;;;0.82;0.65;;;18.70;51.90;;;;;;4980713;28;44811;-59
2023/03/23 07:05:25;;;;;;;0.75;0.60;;;18.70;51.90;;;;;;4984997;28;45383;-58
2023/03/23 07:07:50;;;;;;;0.77;0.50;;;18.70;52.00;;;;;;4988078;28;45158;-59
2023/03/23 07:10:16;;;;;;;0.80;0.50;;;18.70;52.00;;;;;;5005863;28;45279;-58
2023/03/23 07:12:42;;;;;;;0.77;0.60;;;18.70;51.90;;;;;;4996377;28;45506;-59
2023/03/23 07:15:10;;;;;;;0.40;0.40;;;18.80;51.90;;;;;;4989770;28;45508;-58
2023/03/23 07:17:36;;;;;;;1.30;0.68;;;18.80;51.80;;;;;;5002175;28;44711;-58
2023/03/23 07:20:02;;;;;;;0.47;0.40;;;18.80;51.80;;;;;;4994575;28;45175;-59
2023/03/23 07:22:28;;;;;;;0.77;0.60;;;18.80;51.80;;;;;;4974249;28;45089;-57
2023/03/23 07:24:53;;;;;;;0.80;0.60;;;18.80;51.80;;;;;;4995535;28;45554;-59
2023/03/23 07:27:19;;;;;;;0.63;0.50;;;18.90;51.80;;;;;;4998994;28;45208;-58
2023/03/23 07:29:45;;;;;;;0.60;0.50;;;18.90;51.80;;;;;;4987841;28;45480;-58
2023/03/23 07:32:11;;;;;;;1.13;0.60;;;18.90;51.80;;;;;;4985859;28;45493;-59
2023/03/23 07:34:37;;;;;;;2.25;0.65;;;18.90;51.80;;;;;;5015942;28;46464;-58
2023/03/23 07:37:03;;;;;;;0.90;0.45;;;18.90;51.80;;;;;;5011877;28;45868;-57
2023/03/23 07:39:29;;;;;;;0.50;0.50;;;18.90;51.80;;;;;;4989728;28;45639;-58
2023/03/23 07:41:54;;;;;;;0.68;0.65;;;18.90;51.80;;;;;;5002002;28;45257;-59
2023/03/23 07:44:20;;;;;;;0.85;0.68;;;18.90;51.80;;;;;;4995841;28;45813;-58
2023/03/23 07:46:46;;;;;;;0.57;0.40;;;18.90;51.70;;;;;;4988810;28;45518;-57
2023/03/23 07:49:12;;;;;;;0.55;0.52;;;19.00;51.80;;;;;;5006814;28;45582;-59
2023/03/23 07:51:40;;;;;;;0.95;0.60;;;19.00;51.80;;;;;;4991564;28;45452;-59
2023/03/23 07:54:07;;;;;;;0.50;0.50;;;19.00;51.70;;;;;;4983579;28;47027;-57
2023/03/23 07:56:33;;;;;;;0.38;0.30;;;19.00;51.70;;;;;;4972250;28;45165;-57
2023/03/23 07:58:59;;;;;;;0.55;0.43;;;19.00;51.70;;;;;;4993074;28;45553;-59
2023/03/23 08:01:25;;;;;;;3.47;0.70;;;19.00;51.70;;;;;;4996867;28;45550;-58
2023/03/23 08:03:51;;;;;;;1.23;0.63;;;19.10;51.80;;;;;;4994763;28;47143;-57
2023/03/23 08:06:17;;;;;;;0.40;0.40;;;19.00;51.70;;;;;;5015421;28;45332;-59
2023/03/23 08:08:42;;;;;;;0.77;0.55;;;19.10;51.70;;;;;;5024064;28;44965;-58
2023/03/23 08:11:08;;;;;;;0.50;0.50;;;19.10;51.70;;;;;;5000407;28;45605;-60
2023/03/23 08:13:35;;;;;;;1.60;0.55;;;19.10;51.70;;;;;;4997730;28;46906;-57
2023/03/23 08:16:03;;;;;;;2.58;0.50;;;19.10;51.70;;;;;;4999912;28;44974;-59
2023/03/23 08:18:29;;;;;;;0.40;0.40;;;19.10;51.70;;;;;;5016592;28;44977;-57
2023/03/23 08:20:55;;;;;;;0.90;0.70;;;19.10;51.70;;;;;;4998815;28;45492;-59
2023/03/23 08:23:21;;;;;;;0.93;0.43;;;19.10;51.70;;;;;;4986299;28;48381;-58
2023/03/23 08:25:47;;;;;;;1.60;1.13;;;19.20;51.80;;;;;;4998762;28;45253;-57
2023/03/23 08:28:13;;;;;;;0.63;0.63;;;19.30;51.80;;;;;;4990550;28;45027;-58
2023/03/23 08:30:39;;;;;;;1.05;0.70;;;19.40;51.60;;;;;;4981538;28;45243;-57
2023/03/23 08:33:05;;;;;;;1.38;0.70;;;19.50;51.50;;;;;;5018849;28;45282;-58
2023/03/23 08:35:31;;;;;;;0.40;0.40;;;19.70;51.30;;;;;;4995310;28;45486;-59
2023/03/23 08:37:57;;;;;;;0.65;0.50;;;19.80;51.00;;;;;;5007732;28;45080;-59
2023/03/23 08:40:23;;;;;;;0.60;0.50;;;20.00;50.80;;;;;;5003087;28;45366;-58
2023/03/23 08:42:49;;;;;;;0.50;0.50;;;20.10;50.60;;;;;;4976048;28;45480;-59
2023/03/23 08:45:17;;;;;;;0.75;0.57;;;20.30;50.50;;;;;;4990616;28;46778;-57
2023/03/23 08:47:44;;;;;;;3.30;0.55;;;20.40;50.40;;;;;;4994779;28;46052;-59
2023/03/23 08:50:12;;;;;;;0.68;0.45;;;20.50;50.20;;;;;;4971234;28;45133;-61
2023/03/23 08:52:37;;;;;;;2.67;0.50;;;20.60;50.10;;;;;;4974785;28;46383;-58
2023/03/23 08:55:05;;;;;;;1.80;0.47;;;20.70;50.00;;;;;;4994632;28;44935;-60
2023/03/23 08:57:31;;;;;;;0.43;0.40;;;20.80;50.00;;;;;;5000089;28;45096;-60
2023/03/23 08:59:59;;;;;;;1.25;0.50;;;20.80;50.00;;;;;;4982686;28;45504;-58
2023/03/23 09:02:26;;;;;;;0.52;0.47;;;21.00;50.00;;;;;;5005212;28;46164;-59
2023/03/23 09:04:52;;;;;;;0.35;0.32;;;21.10;49.90;;;;;;5005493;28;45559;-60
2023/03/23 09:07:18;;;;;;;0.85;0.60;;;21.20;49.80;;;;;;4984069;28;45935;-60
2023/03/23 09:09:44;;;;;;;0.75;0.35;;;21.20;49.70;;;;;;5001963;28;45875;-59
2023/03/23 09:12:10;;;;;;;0.28;0.28;;;21.30;49.70;;;;;;4985859;28;45591;-58
2023/03/23 09:14:37;;;;;;;0.40;0.40;;;21.40;49.70;;;;;;5008468;28;45736;-59
2023/03/23 09:17:02;;;;;;;0.38;0.38;;;21.50;49.60;;;;;;4985277;28;45340;-59
2023/03/23 09:19:29;;;;;;;4.75;0.50;;;21.60;49.50;;;;;;5021843;28;45497;-60
2023/03/23 09:21:55;;;;;;;0.40;0.30;;;21.70;49.40;;;;;;4986788;28;45254;-60
2023/03/23 09:24:20;;;;;;;0.30;0.30;;;21.80;49.40;;;;;;4999115;28;45304;-57
2023/03/23 09:26:46;;;;;;;1.10;0.30;;;21.90;49.20;;;;;;4990504;28;45511;-60
2023/03/23 09:29:12;;;;;;;0.50;0.50;;;22.00;49.20;;;;;;4990902;28;45207;-58
2023/03/23 09:31:39;;;;;;;0.38;0.32;;;22.10;49.10;;;;;;4985783;28;45709;-61
2023/03/23 09:34:06;;;;;;;0.50;0.45;;;22.10;49.00;;;;;;4991598;28;45715;-59
2023/03/23 09:36:31;;;;;;;2.45;0.50;;;22.20;48.90;;;;;;4972043;28;45530;-59
2023/03/23 09:38:58;;;;;;;0.32;0.30;;;22.30;48.90;;;;;;4997845;28;46879;-60
2023/03/23 09:41:54;;;;;;;0.50;0.40;;;22.30;48.90;;;;;;5002318;28;46944;-58
2023/03/23 09:44:27;;;;;;;0.88;0.40;;;22.40;48.80;;;;;;4973291;28;45383;-58
2023/03/23 09:47:42;;;;;;;0.88;0.60;;;22.50;48.80;;;;;;4971211;28;44872;-59
2023/03/23 09:50:18;;;;;;;0.40;0.40;;;22.60;48.60;;;;;;4975724;28;45517;-59
2023/03/23 09:52:57;;;;;;;0.25;0.20;;;22.60;48.70;;;;;;5012308;28;46022;-57
2023/03/23 09:55:22;;;;;;;0.93;0.40;;;22.70;48.60;;;;;;4987308;28;45210;-60
2023/03/23 09:58:10;;;;;;;0.20;0.20;;;22.70;48.70;;;;;;5006038;28;44978;-60
2023/03/23 10:00:37;;;;;;;1.23;0.30;;;22.80;48.60;;;;;;5000453;28;44937;-57
2023/03/23 10:03:15;;;;;;;2.83;0.40;;;22.80;48.70;;;;;;4954338;28;46504;-57
2023/03/23 10:05:47;;;;;;;0.20;0.20;;;22.80;48.60;;;;;;4980093;28;45086;-59
2023/03/23 10:08:27;;;;;;;0.60;0.40;;;23.00;48.60;;;;;;4993726;28;45086;-59
2023/03/23 10:11:03;;;;;;;0.50;0.50;;;23.00;48.40;;;;;;4970119;28;45155;-60
2023/03/23 10:13:34;;;;;;;0.63;0.45;;;23.00;48.30;;;;;;5009782;28;45568;-59
2023/03/23 10:16:00;;;;;;;0.28;0.28;;;23.10;48.30;;;;;;4981580;28;45216;-60
2023/03/23 10:18:43;;;;;;;0.30;0.30;;;23.20;48.40;;;;;;4980847;28;45111;-60
2023/03/23 10:21:13;;;;;;;0.50;0.40;;;23.20;48.10;;;;;;4974194;28;46234;-58
2023/03/23 10:23:58;;;;;;;0.70;0.30;;;23.20;48.30;;;;;;4960891;28;47409;-60
2023/03/23 10:26:28;;;;;;;0.75;0.22;;;23.30;48.00;;;;;;4997956;28;45382;-59
2023/03/23 10:29:00;;;;;;;0.40;0.40;;;23.40;48.20;;;;;;5008718;28;45641;-59
2023/03/23 10:31:35;;;;;;;0.50;0.35;;;23.40;48.20;;;;;;4998859;28;45270;-58
2023/03/23 10:34:08;;;;;;;0.85;0.30;;;23.50;48.20;;;;;;4953332;28;45520;-58
2023/03/23 10:36:48;;;;;;;0.40;0.40;;;23.50;48.10;;;;;;4961588;28;45599;-60
2023/03/23 10:39:23;;;;;;;0.73;0.43;;;23.50;48.20;;;;;;4978632;28;45364;-56
2023/03/23 10:41:49;;;;;;;0.40;0.30;;;23.50;47.90;;;;;;5005274;28;45249;-57
2023/03/23 10:44:25;;;;;;;0.40;0.40;;;23.60;48.10;;;;;;4986688;28;45585;-58
2023/03/23 10:47:02;;;;;;;0.30;0.30;;;23.60;48.00;;;;;;4986243;28;46103;-61
2023/03/23 10:49:51;;;;;;;0.25;0.25;;;23.70;47.90;;;;;;5012577;28;44893;-61
2023/03/23 10:52:37;;;;;;;0.30;0.30;;;23.70;47.70;;;;;;4979259;28;44838;-60
2023/03/23 10:55:09;;;;;;;0.30;0.30;;;23.80;47.80;;;;;;4961741;28;45503;-61
2023/03/23 10:57:36;;;;;;;1.75;0.40;;;23.80;47.80;;;;;;5003914;28;45329;-60
2023/03/23 11:00:14;;;;;;;0.95;0.40;;;23.80;47.90;;;;;;4978088;28;45388;-61
2023/03/23 11:02:58;;;;;;;0.50;0.30;;;23.90;47.90;;;;;;4999509;28;45165;-61
2023/03/23 11:05:27;;;;;;;0.73;0.40;;;23.90;47.80;;;;;;4985681;28;45266;-60
2023/03/23 11:07:55;;;;;;;0.20;0.20;;;24.00;47.80;;;;;;4996141;28;45401;-60
2023/03/23 11:10:40;;;;;;;1.20;0.30;;;24.00;47.80;;;;;;4957980;28;45364;-59
2023/03/23 11:13:12;;;;;;;0.32;0.32;;;24.00;47.50;;;;;;5003224;28;44938;-60
2023/03/23 11:15:39;;;;;;;0.52;0.20;;;24.00;47.60;;;;;;4997257;28;46244;-59
2023/03/23 11:18:09;;;;;;;0.40;0.30;;;24.00;47.70;;;;;;4958050;28;45502;-60
2023/03/23 11:20:39;;;;;;;0.45;0.38;;;24.10;47.70;;;;;;4972487;28;45374;-60
2023/03/23 11:23:15;;;;;;;0.45;0.30;;;24.10;47.60;;;;;;4991089;28;45411;-60
2023/03/23 11:26:00;;;;;;;0.55;0.20;;;24.20;47.60;;;;;;5006123;28;45674;-59
2023/03/23 11:28:34;;;;;;;0.30;0.30;;;24.20;47.40;;;;;;4992499;28;45681;-60
2023/03/23 11:31:02;;;;;;;0.30;0.20;;;24.20;47.50;;;;;;4981847;28;45291;-59
2023/03/23 11:33:37;;;;;;;0.20;0.20;;;24.30;47.50;;;;;;4972836;28;45328;-58
2023/03/23 11:36:03;;;;;;;0.40;0.35;;;24.30;47.30;;;;;;4987526;28;46794;-60
2023/03/23 11:38:29;;;;;;;0.13;0.10;;;24.30;47.50;;;;;;5020747;28;45054;-59
2023/03/23 11:40:54;;;;;;;0.30;0.30;;;24.30;47.50;;;;;;4991537;28;45238;-59
2023/03/23 11:43:23;;;;;;;0.68;0.40;;;24.20;47.50;;;;;;5005844;28;45289;-59
2023/03/23 11:46:05;;;;;;;0.43;0.40;;;24.20;48.20;;;;;;5012671;28;45872;-60
2023/03/23 11:48:52;;;;;;;0.45;0.28;;;24.20;47.60;;;;;;5004479;28;45438;-60
2023/03/23 11:51:37;;;;;;;0.57;0.28;;;24.20;47.40;;;;;;4975132;28;45292;-60
2023/03/23 11:54:30;;;;;;;0.30;0.30;;;24.30;47.40;;;;;;4993814;28;44884;-61
2023/03/23 11:56:56;;;;;;;0.60;0.30;;;24.30;47.30;;;;;;5001551;28;45448;-61
2023/03/23 11:59:35;;;;;;;0.20;0.20;;;24.40;47.50;;;;;;4970352;28;45545;-60
2023/03/23 12:02:20;;;;;;;0.40;0.40;;;24.40;47.20;;;;;;4966679;28;45204;-59
2023/03/23 12:05:26;;;;;;;0.40;0.32;;;24.40;47.40;;;;;;5021711;28;45326;-61
2023/03/23 12:08:17;;;;;;;0.40;0.30;;;24.50;47.10;;;;;;4995659;28;46011;-62
2023/03/23 12:10:54;;;;;;;0.20;0.20;;;24.50;47.10;;;;;;5003712;28;45089;-60
2023/03/23 12:13:39;;;;;;;0.20;0.20;;;24.60;47.20;;;;;;4999252;28;45375;-61
2023/03/23 12:16:31;;;;;;;0.10;0.10;;;24.50;47.00;;;;;;4996103;28;45190;-60
2023/03/23 12:19:03;;;;;;;0.30;0.30;;;24.50;47.10;;;;;;4994969;28;45136;-60
2023/03/23 12:21:39;;;;;;;0.30;0.13;;;24.40;47.50;;;;;;4994155;28;45964;-61
2023/03/23 12:24:19;;;;;;;0.20;0.20;;;24.40;47.50;;;;;;4995175;28;45568;-61
2023/03/23 12:27:25;;;;;;;0.32;0.20;;;24.50;47.40;;;;;;4999287;28;45610;-62
2023/03/23 12:30:12;;;;;;;0.55;0.40;;;24.50;47.20;;;;;;5002145;28;45827;-61
2023/03/23 12:32:57;;;;;;;0.85;0.30;;;24.60;47.40;;;;;;4985801;28;45504;-61
2023/03/23 12:35:32;;;;;;;0.38;0.20;;;24.60;47.40;;;;;;5001071;28;45251;-61
2023/03/23 12:38:25;;;;;;;0.57;0.22;;;24.70;47.40;;;;;;4974281;28;45520;-61
2023/03/23 12:41:20;;;;;;;0.30;0.30;;;24.70;47.20;;;;;;4991233;28;46956;-61
2023/03/23 12:44:01;;;;;;;0.88;0.30;;;24.80;47.10;;;;;;5015062;28;45379;-60
2023/03/23 12:46:34;;;;;;;0.30;0.30;;;24.80;47.30;;;;;;5020991;28;45631;-60
2023/03/23 12:49:18;;;;;;;0.20;0.20;;;24.70;47.30;;;;;;4992995;28;45263;-60
2023/03/23 12:51:50;;;;;;;0.20;0.20;;;24.70;47.30;;;;;;5002456;28;46425;-59
2023/03/23 12:54:32;;;;;;;0.28;0.13;;;24.60;47.50;;;;;;5023890;28;45472;-60
2023/03/23 12:57:15;;;;;;;0.20;0.20;;;24.70;47.50;;;;;;4965306;28;45301;-59
2023/03/23 13:00:02;;;;;;;0.30;0.28;;;24.70;47.40;;;;;;5013981;28;45572;-60
2023/03/23 13:02:31;;;;;;;0.68;0.30;;;24.80;47.40;;;;;;4982223;28;45854;-60
2023/03/23 13:05:11;;;;;;;0.45;0.35;;;24.80;47.40;;;;;;4978315;28;45321;-60
2023/03/23 13:08:24;;;;;;;0.40;0.40;;;24.80;47.40;;;;;;4996845;28;45224;-61
2023/03/23 13:10:50;;;;;;;0.30;0.20;;;24.90;47.10;;;;;;4971029;28;45369;-60
2023/03/23 13:13:25;;;;;;;0.28;0.20;;;24.80;47.20;;;;;;4989273;28;45489;-58
2023/03/23 13:16:21;;;;;;;0.28;0.25;;;24.80;47.10;;;;;;4987661;28;45187;-60
2023/03/23 13:19:07;;;;;;;0.30;0.30;;;24.80;47.20;;;;;;5015013;28;45494;-59
2023/03/23 13:22:13;;;;;;;0.25;0.25;;;24.70;47.40;;;;;;4993648;28;45088;-59
2023/03/23 13:24:46;;;;;;;0.60;0.30;;;24.80;47.40;;;;;;4971208;28;45611;-60
2023/03/23 13:27:12;;;;;;;0.57;0.52;;;24.80;47.50;;;;;;4968304;28;45385;-61
2023/03/23 13:29:44;;;;;;;0.20;0.15;;;24.80;47.50;;;;;;4967446;28;45151;-60
2023/03/23 13:32:16;;;;;;;0.50;0.30;;;24.90;47.30;;;;;;4984007;28;44985;-60
2023/03/23 13:34:42;;;;;;;0.28;0.20;;;24.90;47.30;;;;;;4976153;28;45574;-59
2023/03/23 13:37:24;;;;;;;2.33;0.35;;;25.00;47.30;;;;;;4989896;28;44989;-59
2023/03/23 13:39:55;;;;;;;0.60;0.30;;;25.00;47.10;;;;;;4986196;28;45318;-59
2023/03/23 13:42:23;;;;;;;0.43;0.28;;;25.00;47.10;;;;;;4985114;28;45461;-60
2023/03/23 13:44:49;;;;;;;1.48;0.30;;;24.90;47.30;;;;;;4969558;28;46681;-61
2023/03/23 13:47:20;;;;;;;0.20;0.20;;;24.90;47.40;;;;;;4987334;28;45503;-61
2023/03/23 13:49:50;;;;;;;0.68;0.30;;;24.80;47.40;;;;;;5003225;28;45276;-58
2023/03/23 13:52:22;;;;;;;0.30;0.30;;;24.90;47.60;;;;;;4979664;28;45794;-58
2023/03/23 13:54:48;;;;;;;0.30;0.20;;;24.90;47.60;;;;;;4994584;28;45629;-61
2023/03/23 13:57:33;;;;;;;0.30;0.30;;;24.90;47.50;;;;;;5009185;28;45281;-61
2023/03/23 14:00:09;;;;;;;0.98;0.25;;;25.00;47.40;;;;;;4994110;28;45750;-61
2023/03/23 14:02:38;;;;;;;0.20;0.20;;;25.00;47.40;;;;;;4968105;28;44893;-61
2023/03/23 14:05:16;;;;;;;0.35;0.30;;;25.10;47.40;;;;;;5000426;28;47188;-62
2023/03/23 14:08:08;;;;;;;0.35;0.10;;;25.10;47.20;;;;;;4989309;28;45086;-61
2023/03/23 14:10:35;;;;;;;0.30;0.30;;;25.20;47.30;;;;;;4985293;28;45378;-61
2023/03/23 14:13:02;;;;;;;0.30;0.20;;;25.10;47.30;;;;;;4978609;28;44900;-60
2023/03/23 14:15:31;;;;;;;0.47;0.20;;;25.10;47.50;;;;;;5000086;28;46098;-61
2023/03/23 14:17:56;;;;;;;0.63;0.20;;;25.00;47.40;;;;;;4988701;28;45197;-59
2023/03/23 14:20:29;;;;;;;2.28;0.30;;;25.00;47.60;;;;;;4970308;28;45287;-61
2023/03/23 14:22:55;;;;;;;0.43;0.40;;;25.00;47.60;;;;;;4990971;28;45294;-60
2023/03/23 14:25:21;;;;;;;0.20;0.20;;;25.00;47.60;;;;;;5018997;28;45831;-61
2023/03/23 14:27:47;;;;;;;0.63;0.20;;;25.00;47.60;;;;;;4980320;28;45009;-61
2023/03/23 14:30:14;;;;;;;0.55;0.30;;;25.10;47.50;;;;;;4990401;28;45486;-62
2023/03/23 14:32:40;;;;;;;0.38;0.20;;;25.10;47.40;;;;;;5005250;28;45852;-59
2023/03/23 14:35:25;;;;;;;0.95;0.20;;;25.20;47.50;;;;;;5003863;28;45473;-60
2023/03/23 14:37:51;;;;;;;0.50;0.20;;;25.20;47.40;;;;;;4976235;28;44729;-59
2023/03/23 14:40:17;;;;;;;0.73;0.20;;;25.30;47.40;;;;;;4983714;28;45365;-60
2023/03/23 14:42:43;;;;;;;0.32;0.20;;;25.30;47.30;;;;;;4986808;28;45676;-59
2023/03/23 14:45:15;;;;;;;0.30;0.30;;;25.30;47.30;;;;;;4966696;28;45558;-61
2023/03/23 14:47:45;;;;;;;0.20;0.13;;;25.20;47.30;;;;;;5008597;28;45592;-57
2023/03/23 14:50:29;;;;;;;0.10;0.10;;;25.20;47.50;;;;;;4982046;28;45985;-60
2023/03/23 14:53:15;;;;;;;2.28;0.20;;;25.10;47.50;;;;;;5003426;28;44949;-59
2023/03/23 14:55:42;;;;;;;0.20;0.20;;;25.00;47.70;;;;;;4983053;28;45229;-60
2023/03/23 14:58:12;;;;;;;0.32;0.32;;;25.00;47.80;;;;;;4964813;28;45535;-61
2023/03/23 15:00:48;;;;;;;0.38;0.30;;;25.10;47.80;;;;;;4968284;28;45124;-61
2023/03/23 15:03:15;;;;;;;0.22;0.20;;;25.10;47.70;;;;;;5004652;28;44957;-61
2023/03/23 15:05:45;;;;;;;0.45;0.20;;;25.20;47.70;;;;;;4955409;28;47411;-61
2023/03/23 15:08:20;;;;;;;0.40;0.25;;;25.20;47.60;;;;;;4997879;28;45121;-59
2023/03/23 15:10:53;;;;;;;1.13;0.20;;;25.30;47.60;;;;;;5015735;28;45315;-60
2023/03/23 15:13:19;;;;;;;0.10;0.10;;;25.30;47.50;;;;;;4975399;28;45523;-59
2023/03/23 15:15:45;;;;;;;0.35;0.20;;;25.30;47.50;;;;;;4992159;28;45664;-59
2023/03/23 15:18:34;;;;;;;2.28;0.30;;;25.30;47.50;;;;;;5001403;28;45239;-59
2023/03/23 15:21:12;;;;;;;2.20;0.47;;;25.20;47.50;;;;;;4968719;28;45406;-59
2023/03/23 15:23:42;;;;;;;0.10;0.10;;;25.10;47.70;;;;;;5000393;28;45641;-60
2023/03/23 15:26:23;;;;;;;1.10;0.20;;;25.10;47.80;;;;;;4984048;28;45656;-59
2023/03/23 15:28:48;;;;;;;2.17;0.20;;;25.10;47.90;;;;;;4977787;28;45646;-59
2023/03/23 15:31:14;;;;;;;1.15;0.35;;;25.10;48.00;;;;;;5009500;28;44693;-59
2023/03/23 15:33:40;;;;;;;0.63;0.28;;;25.10;47.90;;;;;;4990689;28;45237;-59
2023/03/23 15:36:17;;;;;;;0.30;0.28;;;25.20;47.90;;;;;;4978393;28;46030;-60
2023/03/23 15:38:44;;;;;;;0.22;0.20;;;25.20;47.80;;;;;;4997178;28;45314;-58
2023/03/23 15:41:23;;;;;;;0.20;0.20;;;25.30;47.80;;;;;;4998410;28;45877;-59
2023/03/23 15:43:57;;;;;;;0.20;0.20;;;25.30;47.60;;;;;;4995647;28;46048;-57
2023/03/23 15:46:23;;;;;;;1.00;0.30;;;25.40;47.60;;;;;;4983458;28;45273;-59
2023/03/23 15:48:53;;;;;;;0.63;0.30;;;25.40;47.60;;;;;;4972693;28;45085;-58
2023/03/23 15:51:19;;;;;;;0.28;0.20;;;25.30;47.50;;;;;;4998944;28;45833;-59
2023/03/23 15:53:45;;;;;;;0.20;0.20;;;25.20;47.60;;;;;;4972095;28;45178;-58
2023/03/23 15:56:12;;;;;;;0.20;0.20;;;25.20;47.70;;;;;;4994365;28;46124;-58
2023/03/23 15:58:41;;;;;;;0.28;0.28;;;25.10;47.70;;;;;;5017485;28;45237;-58
2023/03/23 16:01:26;;;;;;;0.47;0.38;;;25.10;47.80;;;;;;4998106;28;45199;-59
2023/03/23 16:03:54;;;;;;;0.30;0.25;;;25.00;47.80;;;;;;4994012;28;46228;-59
2023/03/23 16:06:22;;;;;;;0.20;0.20;;;25.00;48.10;;;;;;4961356;28;45238;-59
2023/03/23 16:08:47;;;;;;;0.52;0.40;;;24.90;48.20;;;;;;4974013;28;44641;-59
2023/03/23 16:11:14;;;;;;;0.30;0.30;;;24.90;48.30;;;;;;4973262;28;45396;-60
2023/03/23 16:13:40;;;;;;;0.20;0.20;;;24.80;48.30;;;;;;4992511;28;45939;-59
2023/03/23 16:16:07;;;;;;;0.50;0.32;;;24.80;48.40;;;;;;4995597;28;46968;-60
2023/03/23 16:18:32;;;;;;;0.47;0.30;;;24.80;48.50;;;;;;4993880;28;45623;-60
2023/03/23 16:20:58;;;;;;;0.20;0.20;;;24.70;48.60;;;;;;4955358;28;45825;-58
2023/03/23 16:23:23;;;;;;;0.15;0.10;;;24.70;48.60;;;;;;4999125;28;45851;-59
2023/03/23 16:25:49;;;;;;;0.63;0.30;;;24.60;48.60;;;;;;4999955;28;48294;-60
2023/03/23 16:28:15;;;;;;;0.35;0.25;;;24.60;48.70;;;;;;5016226;28;45145;-58
2023/03/23 16:30:42;;;;;;;1.17;0.30;;;24.60;48.70;;;;;;4980500;28;45330;-60
2023/03/23 16:33:08;;;;;;;0.30;0.25;;;24.60;49.40;;;;;;4988083;28;45678;-59
2023/03/23 16:35:34;;;;;;;0.40;0.30;;;24.50;48.80;;;;;;4980791;28;45515;-59
2023/03/23 16:38:00;;;;;;;0.30;0.20;;;24.50;48.90;;;;;;5007340;28;45230;-59
2023/03/23 16:40:26;;;;;;;0.68;0.20;;;24.50;49.00;;;;;;4978958;28;45680;-59
2023/03/23 16:42:52;;;;;;;0.35;0.35;;;24.40;49.00;;;;;;4991234;28;44936;-60
2023/03/23 16:45:18;;;;;;;0.20;0.20;;;24.40;49.10;;;;;;5003462;28;45719;-58
2023/03/23 16:47:44;;;;;;;0.20;0.20;;;24.40;49.20;;;;;;4986905;28;45508;-58
2023/03/23 16:50:11;;;;;;;0.20;0.20;;;24.30;49.10;;;;;;4986321;28;45165;-59
2023/03/23 16:52:41;;;;;;;2.15;0.30;;;24.30;49.20;;;;;;4987503;28;45402;-58
2023/03/23 16:55:07;;;;;;;0.50;0.25;;;24.20;49.20;;;;;;4987134;28;45315;-59
2023/03/23 16:57:37;;;;;;;0.20;0.20;;;24.20;49.30;;;;;;4991665;28;45538;-58
2023/03/23 17:00:05;;;;;;;0.55;0.30;;;24.10;49.40;;;;;;4993952;28;45304;-58
2023/03/23 17:02:31;;;;;;;0.50;0.28;;;24.10;49.50;;;;;;4978690;28;45243;-58
2023/03/23 17:04:56;;;;;;;0.50;0.50;;;24.10;49.50;;;;;;4962399;28;45796;-59
2023/03/23 17:07:23;;;;;;;0.95;0.28;;;24.00;49.50;;;;;;4986842;28;45314;-58